This is the latest recevied weather packets stored in our database for station/object WX7FGZ-6. If no packets are shown the sender has not sent any weather packets the latest 1 day(s).
| Time | Temp. | Humidity | Pressure | Rain* | Wind** | Luminosity | Snow |
|---|---|---|---|---|---|---|---|
| 1778079536 | -2.22° C | 76% | 1017.9 hPa | 0 mm | - | - | - |
| 1778079236 | -2.22° C | 76% | 1017.8 hPa | 0 mm | - | - | - |
| 1778077736 | -2.78° C | 81% | 1016.9 hPa | 0 mm | - | - | - |
| 1778075869 | -3.33° C | 80% | 1016.4 hPa | 0 mm | - | - | - |
| 1778075768 | -3.33° C | 80% | 1016.4 hPa | 0 mm | - | - | - |
| 1778075468 | -3.33° C | 81% | 1016.3 hPa | 0 mm | - | - | - |
| 1778075255 | -3.33° C | 80% | 1016.4 hPa | 0 mm | - | - | - |
| 1778074230 | -3.33° C | 79% | 1016.3 hPa | 0 mm | - | - | - |
| 1778073930 | -3.89° C | 79% | 1016.3 hPa | 0 mm | - | - | - |
| 1778073104 | -3.89° C | 77% | 1016 hPa | 0 mm | - | - | - |
| 1778073030 | -3.89° C | 77% | 1016 hPa | 0 mm | - | - | - |
| 1778072730 | -3.89° C | 78% | 1016 hPa | 0 mm | - | - | - |
| 1778072513 | -3.89° C | 77% | 1016 hPa | 0 mm | - | - | - |
| 1778071231 | -4.44° C | 80% | 1015.7 hPa | 0 mm | - | - | - |
| 1778069730 | -4.44° C | 81% | 1015.4 hPa | 0 mm | - | - | - |
| 1778069130 | -4.44° C | 82% | 1015.4 hPa | 0 mm | - | - | - |
| 1778068830 | -4.44° C | 82% | 1015.3 hPa | 0 mm | - | - | - |
| 1778068530 | -4.44° C | 83% | 1015.3 hPa | 0 mm | - | - | - |
| 1778067630 | -5° C | 84% | 1015.2 hPa | 0 mm | - | - | - |
| 1778066790 | -5° C | 85% | 1015.1 hPa | 0 mm | - | - | - |
| 1778066490 | -5° C | 84% | 1015.1 hPa | 0 mm | - | - | - |
| 1778064567 | -4.44° C | 83% | 1015.1 hPa | 0 mm | - | - | - |
| 1778064267 | -4.44° C | 83% | 1015 hPa | 0 mm | - | - | - |
| 1778063967 | -4.44° C | 82% | 1015 hPa | 0 mm | - | - | - |
| 1778062467 | -4.44° C | 84% | 1014.6 hPa | 0 mm | - | - | - |
* Rain latest hour (hover to see other rain measurements)
** Current wind speed in m/s (hover to see current wind gust speed)